sensor_id;sensor_type;location;lat;lon;timestamp;P1;durP1;ratioP1;P2;durP2;ratioP2
7493;SDS011;3788;49.902;8.590;2023-04-06T00:01:28;3.50;;;3.20;;
7493;SDS011;3788;49.902;8.590;2023-04-06T00:03:58;3.37;;;2.83;;
7493;SDS011;3788;49.902;8.590;2023-04-06T00:06:25;3.47;;;3.17;;
7493;SDS011;3788;49.902;8.590;2023-04-06T00:08:54;3.43;;;3.13;;
7493;SDS011;3788;49.902;8.590;2023-04-06T00:11:21;3.90;;;3.57;;
7493;SDS011;3788;49.902;8.590;2023-04-06T00:13:48;4.73;;;3.70;;
7493;SDS011;3788;49.902;8.590;2023-04-06T00:16:25;3.33;;;3.03;;
7493;SDS011;3788;49.902;8.590;2023-04-06T00:18:53;4.03;;;3.60;;
7493;SDS011;3788;49.902;8.590;2023-04-06T00:21:20;4.60;;;3.40;;
7493;SDS011;3788;49.902;8.590;2023-04-06T00:23:47;3.87;;;3.47;;
7493;SDS011;3788;49.902;8.590;2023-04-06T00:26:14;3.77;;;3.37;;
7493;SDS011;3788;49.902;8.590;2023-04-06T00:28:42;4.87;;;3.43;;
7493;SDS011;3788;49.902;8.590;2023-04-06T00:31:09;4.80;;;3.97;;
7493;SDS011;3788;49.902;8.590;2023-04-06T00:33:37;4.87;;;3.93;;
7493;SDS011;3788;49.902;8.590;2023-04-06T00:36:06;3.53;;;3.17;;
7493;SDS011;3788;49.902;8.590;2023-04-06T00:38:33;4.30;;;3.50;;
7493;SDS011;3788;49.902;8.590;2023-04-06T00:41:00;3.73;;;3.17;;
7493;SDS011;3788;49.902;8.590;2023-04-06T00:43:27;4.70;;;3.90;;
7493;SDS011;3788;49.902;8.590;2023-04-06T00:45:53;6.50;;;3.63;;
7493;SDS011;3788;49.902;8.590;2023-04-06T00:48:20;4.33;;;3.93;;
7493;SDS011;3788;49.902;8.590;2023-04-06T00:50:50;5.80;;;4.07;;
7493;SDS011;3788;49.902;8.590;2023-04-06T00:53:17;4.63;;;3.50;;
7493;SDS011;3788;49.902;8.590;2023-04-06T00:55:44;5.10;;;3.60;;
7493;SDS011;3788;49.902;8.590;2023-04-06T00:58:11;5.17;;;3.93;;
7493;SDS011;3788;49.902;8.590;2023-04-06T01:00:37;4.57;;;3.60;;
7493;SDS011;3788;49.902;8.590;2023-04-06T01:03:04;4.63;;;3.70;;
7493;SDS011;3788;49.902;8.590;2023-04-06T01:05:32;4.90;;;3.47;;
7493;SDS011;3788;49.902;8.590;2023-04-06T01:08:01;5.53;;;3.97;;
7493;SDS011;3788;49.902;8.590;2023-04-06T01:10:28;4.93;;;3.40;;
7493;SDS011;3788;49.902;8.590;2023-04-06T01:12:55;5.30;;;3.50;;
7493;SDS011;3788;49.902;8.590;2023-04-06T01:15:21;4.40;;;3.80;;
7493;SDS011;3788;49.902;8.590;2023-04-06T01:17:54;4.20;;;3.80;;
7493;SDS011;3788;49.902;8.590;2023-04-06T01:20:21;5.30;;;3.83;;
7493;SDS011;3788;49.902;8.590;2023-04-06T01:22:49;6.10;;;3.83;;
7493;SDS011;3788;49.902;8.590;2023-04-06T01:25:19;5.03;;;3.77;;
7493;SDS011;3788;49.902;8.590;2023-04-06T01:27:46;4.30;;;3.63;;
7493;SDS011;3788;49.902;8.590;2023-04-06T01:30:13;4.07;;;3.27;;
7493;SDS011;3788;49.902;8.590;2023-04-06T01:32:41;5.63;;;3.90;;
7493;SDS011;3788;49.902;8.590;2023-04-06T01:35:08;4.57;;;3.93;;
7493;SDS011;3788;49.902;8.590;2023-04-06T01:37:35;4.87;;;3.43;;
7493;SDS011;3788;49.902;8.590;2023-04-06T01:40:06;5.60;;;3.87;;
7493;SDS011;3788;49.902;8.590;2023-04-06T01:42:33;6.57;;;4.27;;
7493;SDS011;3788;49.902;8.590;2023-04-06T01:45:11;5.43;;;3.83;;
7493;SDS011;3788;49.902;8.590;2023-04-06T01:47:38;5.17;;;4.20;;
7493;SDS011;3788;49.902;8.590;2023-04-06T01:50:09;6.63;;;4.90;;
7493;SDS011;3788;49.902;8.590;2023-04-06T01:52:38;5.27;;;3.80;;
7493;SDS011;3788;49.902;8.590;2023-04-06T01:55:07;6.40;;;4.10;;
7493;SDS011;3788;49.902;8.590;2023-04-06T01:57:35;5.67;;;3.80;;
7493;SDS011;3788;49.902;8.590;2023-04-06T02:00:02;5.33;;;3.77;;
7493;SDS011;3788;49.902;8.590;2023-04-06T02:02:30;6.00;;;3.93;;
7493;SDS011;3788;49.902;8.590;2023-04-06T02:04:57;5.33;;;3.90;;
7493;SDS011;3788;49.902;8.590;2023-04-06T02:07:23;4.97;;;3.47;;
7493;SDS011;3788;49.902;8.590;2023-04-06T02:09:53;4.47;;;3.53;;
7493;SDS011;3788;49.902;8.590;2023-04-06T02:12:22;4.57;;;3.67;;
7493;SDS011;3788;49.902;8.590;2023-04-06T02:14:49;4.03;;;3.47;;
7493;SDS011;3788;49.902;8.590;2023-04-06T02:17:16;3.93;;;3.50;;
7493;SDS011;3788;49.902;8.590;2023-04-06T02:19:43;4.13;;;3.57;;
7493;SDS011;3788;49.902;8.590;2023-04-06T02:22:09;3.90;;;3.33;;
7493;SDS011;3788;49.902;8.590;2023-04-06T02:24:36;4.33;;;3.60;;
7493;SDS011;3788;49.902;8.590;2023-04-06T02:27:04;5.87;;;4.10;;
7493;SDS011;3788;49.902;8.590;2023-04-06T02:29:33;4.77;;;3.17;;
7493;SDS011;3788;49.902;8.590;2023-04-06T02:31:59;5.77;;;3.70;;
7493;SDS011;3788;49.902;8.590;2023-04-06T02:34:26;4.73;;;4.00;;
7493;SDS011;3788;49.902;8.590;2023-04-06T02:36:54;5.80;;;3.80;;
7493;SDS011;3788;49.902;8.590;2023-04-06T02:39:21;6.00;;;3.50;;
7493;SDS011;3788;49.902;8.590;2023-04-06T02:41:47;5.23;;;3.80;;
7493;SDS011;3788;49.902;8.590;2023-04-06T02:44:14;5.03;;;4.20;;
7493;SDS011;3788;49.902;8.590;2023-04-06T02:46:42;5.90;;;4.67;;
7493;SDS011;3788;49.902;8.590;2023-04-06T02:49:09;5.30;;;4.27;;
7493;SDS011;3788;49.902;8.590;2023-04-06T02:51:35;7.33;;;5.33;;
7493;SDS011;3788;49.902;8.590;2023-04-06T02:54:02;8.50;;;4.97;;
7493;SDS011;3788;49.902;8.590;2023-04-06T02:56:29;5.70;;;4.70;;
7493;SDS011;3788;49.902;8.590;2023-04-06T02:58:55;5.07;;;4.47;;
7493;SDS011;3788;49.902;8.590;2023-04-06T03:01:22;6.60;;;4.57;;
7493;SDS011;3788;49.902;8.590;2023-04-06T03:03:51;6.63;;;5.10;;
7493;SDS011;3788;49.902;8.590;2023-04-06T03:06:17;5.63;;;4.70;;
7493;SDS011;3788;49.902;8.590;2023-04-06T03:08:44;5.80;;;4.07;;
7493;SDS011;3788;49.902;8.590;2023-04-06T03:11:12;6.00;;;4.33;;
7493;SDS011;3788;49.902;8.590;2023-04-06T03:13:38;5.13;;;3.90;;
7493;SDS011;3788;49.902;8.590;2023-04-06T03:16:05;4.87;;;3.57;;
7493;SDS011;3788;49.902;8.590;2023-04-06T03:18:32;4.60;;;3.80;;
7493;SDS011;3788;49.902;8.590;2023-04-06T03:21:00;5.03;;;3.70;;
7493;SDS011;3788;49.902;8.590;2023-04-06T03:23:27;4.40;;;3.77;;
7493;SDS011;3788;49.902;8.590;2023-04-06T03:25:54;3.90;;;3.50;;
7493;SDS011;3788;49.902;8.590;2023-04-06T03:28:20;5.77;;;3.67;;
7493;SDS011;3788;49.902;8.590;2023-04-06T03:30:47;3.97;;;3.57;;
7493;SDS011;3788;49.902;8.590;2023-04-06T03:33:14;4.63;;;3.60;;
7493;SDS011;3788;49.902;8.590;2023-04-06T03:35:41;5.03;;;4.00;;
7493;SDS011;3788;49.902;8.590;2023-04-06T03:38:09;5.07;;;4.10;;
7493;SDS011;3788;49.902;8.590;2023-04-06T03:40:36;4.03;;;3.60;;
7493;SDS011;3788;49.902;8.590;2023-04-06T03:43:03;4.47;;;3.73;;
7493;SDS011;3788;49.902;8.590;2023-04-06T03:45:30;4.40;;;4.00;;
7493;SDS011;3788;49.902;8.590;2023-04-06T03:47:57;3.93;;;3.53;;
7493;SDS011;3788;49.902;8.590;2023-04-06T03:50:23;5.73;;;3.87;;
7493;SDS011;3788;49.902;8.590;2023-04-06T03:52:50;3.93;;;3.53;;
7493;SDS011;3788;49.902;8.590;2023-04-06T03:55:18;4.77;;;4.23;;
7493;SDS011;3788;49.902;8.590;2023-04-06T03:57:44;4.40;;;3.90;;
7493;SDS011;3788;49.902;8.590;2023-04-06T04:00:12;4.20;;;3.80;;
7493;SDS011;3788;49.902;8.590;2023-04-06T04:02:39;4.97;;;3.93;;
7493;SDS011;3788;49.902;8.590;2023-04-06T04:05:06;5.40;;;3.70;;
7493;SDS011;3788;49.902;8.590;2023-04-06T04:07:33;4.10;;;3.67;;
7493;SDS011;3788;49.902;8.590;2023-04-06T04:10:00;4.63;;;3.87;;
7493;SDS011;3788;49.902;8.590;2023-04-06T04:12:28;6.30;;;4.90;;
7493;SDS011;3788;49.902;8.590;2023-04-06T04:14:54;4.80;;;4.30;;
7493;SDS011;3788;49.902;8.590;2023-04-06T04:17:21;5.03;;;3.77;;
7493;SDS011;3788;49.902;8.590;2023-04-06T04:19:48;5.20;;;4.33;;
7493;SDS011;3788;49.902;8.590;2023-04-06T04:22:15;7.70;;;4.00;;
7493;SDS011;3788;49.902;8.590;2023-04-06T04:24:41;4.97;;;4.03;;
7493;SDS011;3788;49.902;8.590;2023-04-06T04:27:08;4.97;;;3.83;;
7493;SDS011;3788;49.902;8.590;2023-04-06T04:29:37;6.03;;;4.10;;
7493;SDS011;3788;49.902;8.590;2023-04-06T04:32:03;5.10;;;4.33;;
7493;SDS011;3788;49.902;8.590;2023-04-06T04:34:30;5.07;;;4.00;;
7493;SDS011;3788;49.902;8.590;2023-04-06T04:36:57;4.70;;;4.20;;
7493;SDS011;3788;49.902;8.590;2023-04-06T04:39:24;4.73;;;4.13;;
7493;SDS011;3788;49.902;8.590;2023-04-06T04:41:51;5.30;;;3.80;;
7493;SDS011;3788;49.902;8.590;2023-04-06T04:44:18;4.20;;;3.80;;
7493;SDS011;3788;49.902;8.590;2023-04-06T04:46:46;6.47;;;4.00;;
7493;SDS011;3788;49.902;8.590;2023-04-06T04:49:13;5.80;;;4.10;;
7493;SDS011;3788;49.902;8.590;2023-04-06T04:51:40;5.57;;;4.20;;
7493;SDS011;3788;49.902;8.590;2023-04-06T04:54:07;5.43;;;4.37;;
7493;SDS011;3788;49.902;8.590;2023-04-06T04:56:33;8.03;;;5.07;;
7493;SDS011;3788;49.902;8.590;2023-04-06T04:59:00;5.47;;;4.47;;
7493;SDS011;3788;49.902;8.590;2023-04-06T05:01:27;6.63;;;5.10;;
7493;SDS011;3788;49.902;8.590;2023-04-06T05:03:55;7.17;;;5.40;;
7493;SDS011;3788;49.902;8.590;2023-04-06T05:06:21;6.60;;;5.17;;
7493;SDS011;3788;49.902;8.590;2023-04-06T05:08:48;4.87;;;4.37;;
7493;SDS011;3788;49.902;8.590;2023-04-06T05:11:15;5.03;;;4.43;;
7493;SDS011;3788;49.902;8.590;2023-04-06T05:13:42;5.55;;;4.63;;
7493;SDS011;3788;49.902;8.590;2023-04-06T05:16:09;4.67;;;4.20;;
7493;SDS011;3788;49.902;8.590;2023-04-06T05:18:35;4.83;;;3.80;;
7493;SDS011;3788;49.902;8.590;2023-04-06T05:21:03;6.37;;;4.20;;
7493;SDS011;3788;49.902;8.590;2023-04-06T05:23:30;4.00;;;3.63;;
7493;SDS011;3788;49.902;8.590;2023-04-06T05:25:57;4.60;;;3.60;;
7493;SDS011;3788;49.902;8.590;2023-04-06T05:28:24;4.13;;;3.60;;
7493;SDS011;3788;49.902;8.590;2023-04-06T05:30:51;5.13;;;4.13;;
7493;SDS011;3788;49.902;8.590;2023-04-06T05:33:19;4.60;;;4.20;;
7493;SDS011;3788;49.902;8.590;2023-04-06T05:35:51;5.10;;;4.20;;
7493;SDS011;3788;49.902;8.590;2023-04-06T05:38:19;4.00;;;3.60;;
7493;SDS011;3788;49.902;8.590;2023-04-06T05:40:46;5.27;;;4.43;;
7493;SDS011;3788;49.902;8.590;2023-04-06T05:43:12;4.63;;;4.13;;
7493;SDS011;3788;49.902;8.590;2023-04-06T05:45:39;4.80;;;3.87;;
7493;SDS011;3788;49.902;8.590;2023-04-06T05:48:06;4.97;;;3.80;;
7493;SDS011;3788;49.902;8.590;2023-04-06T05:50:32;4.70;;;4.03;;
7493;SDS011;3788;49.902;8.590;2023-04-06T05:52:59;5.37;;;4.27;;
7493;SDS011;3788;49.902;8.590;2023-04-06T05:55:27;4.23;;;3.83;;
7493;SDS011;3788;49.902;8.590;2023-04-06T05:57:54;4.40;;;4.00;;
7493;SDS011;3788;49.902;8.590;2023-04-06T06:00:20;4.47;;;4.07;;
7493;SDS011;3788;49.902;8.590;2023-04-06T06:02:47;4.57;;;4.07;;
7493;SDS011;3788;49.902;8.590;2023-04-06T06:05:14;5.43;;;4.60;;
7493;SDS011;3788;49.902;8.590;2023-04-06T06:07:41;5.53;;;4.20;;
7493;SDS011;3788;49.902;8.590;2023-04-06T06:10:08;5.90;;;4.57;;
7493;SDS011;3788;49.902;8.590;2023-04-06T06:12:37;5.97;;;4.37;;
7493;SDS011;3788;49.902;8.590;2023-04-06T06:15:07;6.33;;;4.60;;
7493;SDS011;3788;49.902;8.590;2023-04-06T06:17:34;5.53;;;4.37;;
7493;SDS011;3788;49.902;8.590;2023-04-06T06:20:02;6.47;;;5.07;;
7493;SDS011;3788;49.902;8.590;2023-04-06T06:22:30;6.30;;;5.03;;
7493;SDS011;3788;49.902;8.590;2023-04-06T06:24:57;6.27;;;4.80;;
7493;SDS011;3788;49.902;8.590;2023-04-06T06:27:23;5.47;;;4.97;;
7493;SDS011;3788;49.902;8.590;2023-04-06T06:29:52;9.13;;;5.47;;
7493;SDS011;3788;49.902;8.590;2023-04-06T06:32:19;6.47;;;5.30;;
7493;SDS011;3788;49.902;8.590;2023-04-06T06:34:45;5.80;;;5.30;;
7493;SDS011;3788;49.902;8.590;2023-04-06T06:37:12;5.80;;;5.20;;
7493;SDS011;3788;49.902;8.590;2023-04-06T06:39:39;7.33;;;5.67;;
7493;SDS011;3788;49.902;8.590;2023-04-06T06:42:06;6.10;;;5.50;;
7493;SDS011;3788;49.902;8.590;2023-04-06T06:44:32;6.87;;;5.90;;
7493;SDS011;3788;49.902;8.590;2023-04-06T06:47:00;7.47;;;5.47;;
7493;SDS011;3788;49.902;8.590;2023-04-06T06:49:27;6.73;;;5.93;;
7493;SDS011;3788;49.902;8.590;2023-04-06T06:51:54;6.40;;;5.80;;
7493;SDS011;3788;49.902;8.590;2023-04-06T06:54:21;6.17;;;5.57;;
7493;SDS011;3788;49.902;8.590;2023-04-06T06:56:47;6.93;;;5.70;;
7493;SDS011;3788;49.902;8.590;2023-04-06T06:59:14;7.20;;;5.80;;
7493;SDS011;3788;49.902;8.590;2023-04-06T07:01:41;8.30;;;6.33;;
7493;SDS011;3788;49.902;8.590;2023-04-06T07:04:09;7.90;;;6.70;;
7493;SDS011;3788;49.902;8.590;2023-04-06T07:06:36;6.97;;;6.23;;
7493;SDS011;3788;49.902;8.590;2023-04-06T07:09:02;7.83;;;6.47;;
7493;SDS011;3788;49.902;8.590;2023-04-06T07:11:30;9.17;;;6.97;;
7493;SDS011;3788;49.902;8.590;2023-04-06T07:13:56;6.80;;;5.97;;
7493;SDS011;3788;49.902;8.590;2023-04-06T07:16:23;6.87;;;6.17;;
7493;SDS011;3788;49.902;8.590;2023-04-06T07:18:50;7.40;;;6.33;;
7493;SDS011;3788;49.902;8.590;2023-04-06T07:21:18;8.20;;;6.37;;
7493;SDS011;3788;49.902;8.590;2023-04-06T07:23:44;7.27;;;5.53;;
7493;SDS011;3788;49.902;8.590;2023-04-06T07:26:13;6.83;;;6.13;;
7493;SDS011;3788;49.902;8.590;2023-04-06T07:28:39;6.70;;;5.30;;
7493;SDS011;3788;49.902;8.590;2023-04-06T07:31:06;6.00;;;5.37;;
7493;SDS011;3788;49.902;8.590;2023-04-06T07:33:33;8.23;;;5.80;;
7493;SDS011;3788;49.902;8.590;2023-04-06T07:35:59;6.13;;;5.13;;
7493;SDS011;3788;49.902;8.590;2023-04-06T07:38:27;5.40;;;4.90;;
7493;SDS011;3788;49.902;8.590;2023-04-06T07:40:54;5.47;;;4.30;;
7493;SDS011;3788;49.902;8.590;2023-04-06T07:43:20;6.13;;;5.47;;
7493;SDS011;3788;49.902;8.590;2023-04-06T07:45:47;6.73;;;4.80;;
7493;SDS011;3788;49.902;8.590;2023-04-06T07:48:14;4.83;;;4.43;;
7493;SDS011;3788;49.902;8.590;2023-04-06T07:50:41;6.80;;;5.93;;
7493;SDS011;3788;49.902;8.590;2023-04-06T07:53:08;8.47;;;6.23;;
7493;SDS011;3788;49.902;8.590;2023-04-06T07:55:36;6.80;;;5.57;;
7493;SDS011;3788;49.902;8.590;2023-04-06T07:58:02;6.27;;;5.00;;
7493;SDS011;3788;49.902;8.590;2023-04-06T08:00:29;8.60;;;5.93;;
7493;SDS011;3788;49.902;8.590;2023-04-06T08:02:56;6.70;;;5.53;;
7493;SDS011;3788;49.902;8.590;2023-04-06T08:05:22;7.17;;;5.13;;
7493;SDS011;3788;49.902;8.590;2023-04-06T08:07:49;7.20;;;5.27;;
7493;SDS011;3788;49.902;8.590;2023-04-06T08:10:16;5.70;;;5.20;;
7493;SDS011;3788;49.902;8.590;2023-04-06T08:12:44;6.13;;;5.53;;
7493;SDS011;3788;49.902;8.590;2023-04-06T08:15:11;6.27;;;5.07;;
7493;SDS011;3788;49.902;8.590;2023-04-06T08:17:37;7.33;;;5.67;;
7493;SDS011;3788;49.902;8.590;2023-04-06T08:20:04;5.60;;;5.10;;
7493;SDS011;3788;49.902;8.590;2023-04-06T08:22:32;5.57;;;5.00;;
7493;SDS011;3788;49.902;8.590;2023-04-06T08:24:58;7.33;;;6.20;;
7493;SDS011;3788;49.902;8.590;2023-04-06T08:27:25;7.83;;;5.23;;
7493;SDS011;3788;49.902;8.590;2023-04-06T08:29:53;6.23;;;4.87;;
7493;SDS011;3788;49.902;8.590;2023-04-06T08:32:20;7.27;;;6.57;;
7493;SDS011;3788;49.902;8.590;2023-04-06T08:34:47;7.00;;;5.67;;
7493;SDS011;3788;49.902;8.590;2023-04-06T08:37:13;5.87;;;5.27;;
7493;SDS011;3788;49.902;8.590;2023-04-06T08:39:40;8.43;;;6.50;;
7493;SDS011;3788;49.902;8.590;2023-04-06T08:42:10;6.20;;;5.60;;
7493;SDS011;3788;49.902;8.590;2023-04-06T08:44:42;7.33;;;6.63;;
7493;SDS011;3788;49.902;8.590;2023-04-06T08:47:12;7.60;;;5.97;;
7493;SDS011;3788;49.902;8.590;2023-04-06T08:49:38;7.97;;;6.20;;
7493;SDS011;3788;49.902;8.590;2023-04-06T08:52:05;7.53;;;6.83;;
7493;SDS011;3788;49.902;8.590;2023-04-06T08:54:32;7.10;;;6.40;;
7493;SDS011;3788;49.902;8.590;2023-04-06T08:56:59;6.83;;;5.70;;
7493;SDS011;3788;49.902;8.590;2023-04-06T08:59:28;8.30;;;5.93;;
7493;SDS011;3788;49.902;8.590;2023-04-06T09:01:55;5.80;;;5.30;;
7493;SDS011;3788;49.902;8.590;2023-04-06T09:04:23;7.50;;;6.40;;
7493;SDS011;3788;49.902;8.590;2023-04-06T09:06:50;8.07;;;6.57;;
7493;SDS011;3788;49.902;8.590;2023-04-06T09:09:17;5.53;;;4.97;;
7493;SDS011;3788;49.902;8.590;2023-04-06T09:11:45;6.67;;;6.00;;
7493;SDS011;3788;49.902;8.590;2023-04-06T09:14:12;6.43;;;5.73;;
7493;SDS011;3788;49.902;8.590;2023-04-06T09:16:40;6.57;;;5.70;;
7493;SDS011;3788;49.902;8.590;2023-04-06T09:19:08;6.87;;;5.97;;
7493;SDS011;3788;49.902;8.590;2023-04-06T09:21:36;6.10;;;5.50;;
7493;SDS011;3788;49.902;8.590;2023-04-06T09:24:05;6.60;;;5.53;;
7493;SDS011;3788;49.902;8.590;2023-04-06T09:26:43;8.47;;;6.20;;
7493;SDS011;3788;49.902;8.590;2023-04-06T09:29:10;7.50;;;5.83;;
7493;SDS011;3788;49.902;8.590;2023-04-06T09:31:48;6.10;;;5.50;;
7493;SDS011;3788;49.902;8.590;2023-04-06T09:34:20;6.93;;;6.17;;
7493;SDS011;3788;49.902;8.590;2023-04-06T09:36:49;5.53;;;5.03;;
7493;SDS011;3788;49.902;8.590;2023-04-06T09:39:19;6.27;;;5.67;;
7493;SDS011;3788;49.902;8.590;2023-04-06T09:41:49;7.67;;;5.80;;
7493;SDS011;3788;49.902;8.590;2023-04-06T09:44:17;6.37;;;5.57;;
7493;SDS011;3788;49.902;8.590;2023-04-06T09:46:44;6.33;;;5.70;;
7493;SDS011;3788;49.902;8.590;2023-04-06T09:49:12;7.73;;;5.90;;
7493;SDS011;3788;49.902;8.590;2023-04-06T09:51:40;7.63;;;5.80;;
7493;SDS011;3788;49.902;8.590;2023-04-06T09:54:12;7.07;;;5.57;;
7493;SDS011;3788;49.902;8.590;2023-04-06T09:56:45;8.70;;;5.27;;
7493;SDS011;3788;49.902;8.590;2023-04-06T09:59:13;6.00;;;5.17;;
7493;SDS011;3788;49.902;8.590;2023-04-06T10:01:44;7.00;;;5.67;;
7493;SDS011;3788;49.902;8.590;2023-04-06T10:04:18;6.80;;;6.10;;
7493;SDS011;3788;49.902;8.590;2023-04-06T10:06:53;7.23;;;5.73;;
7493;SDS011;3788;49.902;8.590;2023-04-06T10:09:24;6.70;;;5.73;;
7493;SDS011;3788;49.902;8.590;2023-04-06T10:11:53;7.20;;;5.50;;
7493;SDS011;3788;49.902;8.590;2023-04-06T10:14:20;7.40;;;6.00;;
7493;SDS011;3788;49.902;8.590;2023-04-06T10:16:47;7.13;;;5.37;;
7493;SDS011;3788;49.902;8.590;2023-04-06T10:19:16;6.80;;;5.40;;
7493;SDS011;3788;49.902;8.590;2023-04-06T10:21:47;6.70;;;5.23;;
7493;SDS011;3788;49.902;8.590;2023-04-06T10:24:16;6.80;;;6.00;;
7493;SDS011;3788;49.902;8.590;2023-04-06T10:26:44;7.17;;;6.07;;
7493;SDS011;3788;49.902;8.590;2023-04-06T10:29:23;9.43;;;6.33;;
7493;SDS011;3788;49.902;8.590;2023-04-06T10:31:50;9.30;;;6.47;;
7493;SDS011;3788;49.902;8.590;2023-04-06T10:34:16;7.10;;;6.30;;
7493;SDS011;3788;49.902;8.590;2023-04-06T10:36:43;7.27;;;6.27;;
7493;SDS011;3788;49.902;8.590;2023-04-06T10:39:10;7.07;;;5.57;;
7493;SDS011;3788;49.902;8.590;2023-04-06T10:41:44;6.23;;;5.63;;
7493;SDS011;3788;49.902;8.590;2023-04-06T10:44:20;7.30;;;5.80;;
7493;SDS011;3788;49.902;8.590;2023-04-06T10:46:54;8.80;;;6.27;;
7493;SDS011;3788;49.902;8.590;2023-04-06T10:49:21;7.67;;;5.67;;
7493;SDS011;3788;49.902;8.590;2023-04-06T10:51:51;6.53;;;5.33;;
7493;SDS011;3788;49.902;8.590;2023-04-06T10:54:19;7.27;;;5.97;;
7493;SDS011;3788;49.902;8.590;2023-04-06T10:56:49;8.07;;;6.50;;
7493;SDS011;3788;49.902;8.590;2023-04-06T10:59:18;8.57;;;6.90;;
7493;SDS011;3788;49.902;8.590;2023-04-06T11:01:45;8.17;;;6.43;;
7493;SDS011;3788;49.902;8.590;2023-04-06T11:04:15;9.43;;;7.13;;
7493;SDS011;3788;49.902;8.590;2023-04-06T11:06:45;9.07;;;6.13;;
7493;SDS011;3788;49.902;8.590;2023-04-06T11:09:22;9.40;;;6.90;;
7493;SDS011;3788;49.902;8.590;2023-04-06T11:11:51;8.10;;;6.03;;
7493;SDS011;3788;49.902;8.590;2023-04-06T11:14:18;7.70;;;5.93;;
7493;SDS011;3788;49.902;8.590;2023-04-06T11:16:45;8.43;;;6.67;;
7493;SDS011;3788;49.902;8.590;2023-04-06T11:19:13;8.10;;;6.37;;
7493;SDS011;3788;49.902;8.590;2023-04-06T11:21:40;7.97;;;6.13;;
7493;SDS011;3788;49.902;8.590;2023-04-06T11:24:09;7.83;;;6.33;;
7493;SDS011;3788;49.902;8.590;2023-04-06T11:26:37;8.97;;;5.87;;
7493;SDS011;3788;49.902;8.590;2023-04-06T11:29:10;10.57;;;5.67;;
7493;SDS011;3788;49.902;8.590;2023-04-06T11:31:37;7.57;;;6.60;;
7493;SDS011;3788;49.902;8.590;2023-04-06T11:34:09;6.47;;;5.60;;
7493;SDS011;3788;49.902;8.590;2023-04-06T11:36:39;9.43;;;7.17;;
7493;SDS011;3788;49.902;8.590;2023-04-06T11:39:07;7.33;;;5.50;;
7493;SDS011;3788;49.902;8.590;2023-04-06T11:41:34;7.77;;;5.63;;
7493;SDS011;3788;49.902;8.590;2023-04-06T11:44:02;9.87;;;6.23;;
7493;SDS011;3788;49.902;8.590;2023-04-06T11:46:31;7.43;;;6.23;;
7493;SDS011;3788;49.902;8.590;2023-04-06T11:48:58;9.83;;;7.03;;
7493;SDS011;3788;49.902;8.590;2023-04-06T11:51:25;9.37;;;7.17;;
7493;SDS011;3788;49.902;8.590;2023-04-06T11:53:52;7.30;;;5.87;;
7493;SDS011;3788;49.902;8.590;2023-04-06T11:56:22;11.37;;;7.20;;
7493;SDS011;3788;49.902;8.590;2023-04-06T11:58:50;8.27;;;6.43;;
7493;SDS011;3788;49.902;8.590;2023-04-06T12:01:17;10.30;;;6.10;;
7493;SDS011;3788;49.902;8.590;2023-04-06T12:03:45;10.40;;;6.77;;
7493;SDS011;3788;49.902;8.590;2023-04-06T12:06:11;8.57;;;6.93;;
7493;SDS011;3788;49.902;8.590;2023-04-06T12:08:38;8.00;;;6.10;;
7493;SDS011;3788;49.902;8.590;2023-04-06T12:11:05;6.60;;;5.70;;
7493;SDS011;3788;49.902;8.590;2023-04-06T12:13:32;7.13;;;5.90;;
7493;SDS011;3788;49.902;8.590;2023-04-06T12:15:59;9.60;;;6.87;;
7493;SDS011;3788;49.902;8.590;2023-04-06T12:18:25;7.80;;;6.40;;
7493;SDS011;3788;49.902;8.590;2023-04-06T12:20:53;8.00;;;5.97;;
7493;SDS011;3788;49.902;8.590;2023-04-06T12:23:20;8.13;;;6.40;;
7493;SDS011;3788;49.902;8.590;2023-04-06T12:25:47;8.17;;;6.03;;
7493;SDS011;3788;49.902;8.590;2023-04-06T12:28:13;9.53;;;6.83;;
7493;SDS011;3788;49.902;8.590;2023-04-06T12:30:40;10.27;;;6.77;;
7493;SDS011;3788;49.902;8.590;2023-04-06T12:33:07;7.90;;;6.07;;
7493;SDS011;3788;49.902;8.590;2023-04-06T12:35:33;8.37;;;6.07;;
7493;SDS011;3788;49.902;8.590;2023-04-06T12:38:01;11.27;;;6.10;;
7493;SDS011;3788;49.902;8.590;2023-04-06T12:40:28;5.97;;;5.10;;
7493;SDS011;3788;49.902;8.590;2023-04-06T12:42:55;7.80;;;5.73;;
7493;SDS011;3788;49.902;8.590;2023-04-06T12:45:22;9.87;;;6.50;;
7493;SDS011;3788;49.902;8.590;2023-04-06T12:47:48;9.67;;;6.80;;
7493;SDS011;3788;49.902;8.590;2023-04-06T12:50:16;8.90;;;5.77;;
7493;SDS011;3788;49.902;8.590;2023-04-06T12:52:43;6.53;;;5.50;;
7493;SDS011;3788;49.902;8.590;2023-04-06T12:55:13;6.53;;;5.10;;
7493;SDS011;3788;49.902;8.590;2023-04-06T12:57:45;5.80;;;5.10;;
7493;SDS011;3788;49.902;8.590;2023-04-06T13:00:15;6.77;;;5.43;;
7493;SDS011;3788;49.902;8.590;2023-04-06T13:02:43;6.87;;;5.43;;
7493;SDS011;3788;49.902;8.590;2023-04-06T13:05:12;7.90;;;6.40;;
7493;SDS011;3788;49.902;8.590;2023-04-06T13:07:39;5.23;;;4.73;;
7493;SDS011;3788;49.902;8.590;2023-04-06T13:10:06;7.40;;;5.97;;
7493;SDS011;3788;49.902;8.590;2023-04-06T13:12:35;8.63;;;6.10;;
7493;SDS011;3788;49.902;8.590;2023-04-06T13:15:02;5.60;;;5.10;;
7493;SDS011;3788;49.902;8.590;2023-04-06T13:17:29;7.07;;;6.20;;
7493;SDS011;3788;49.902;8.590;2023-04-06T13:19:56;8.27;;;5.40;;
7493;SDS011;3788;49.902;8.590;2023-04-06T13:22:23;5.67;;;5.07;;
7493;SDS011;3788;49.902;8.590;2023-04-06T13:24:49;8.40;;;5.70;;
7493;SDS011;3788;49.902;8.590;2023-04-06T13:27:16;5.77;;;4.80;;
7493;SDS011;3788;49.902;8.590;2023-04-06T13:29:44;4.90;;;4.40;;
7493;SDS011;3788;49.902;8.590;2023-04-06T13:32:10;6.10;;;5.20;;
7493;SDS011;3788;49.902;8.590;2023-04-06T13:34:37;6.87;;;5.80;;
7493;SDS011;3788;49.902;8.590;2023-04-06T13:37:05;5.67;;;5.00;;
7493;SDS011;3788;49.902;8.590;2023-04-06T13:39:32;6.20;;;5.60;;
7493;SDS011;3788;49.902;8.590;2023-04-06T13:41:58;7.10;;;4.87;;
7493;SDS011;3788;49.902;8.590;2023-04-06T13:44:25;6.47;;;5.23;;
7493;SDS011;3788;49.902;8.590;2023-04-06T13:46:53;5.10;;;4.60;;
7493;SDS011;3788;49.902;8.590;2023-04-06T13:49:19;7.60;;;5.17;;
7493;SDS011;3788;49.902;8.590;2023-04-06T13:51:46;6.00;;;5.23;;
7493;SDS011;3788;49.902;8.590;2023-04-06T13:54:13;7.80;;;5.47;;
7493;SDS011;3788;49.902;8.590;2023-04-06T13:56:40;6.53;;;5.47;;
7493;SDS011;3788;49.902;8.590;2023-04-06T13:59:06;6.97;;;5.37;;
7493;SDS011;3788;49.902;8.590;2023-04-06T14:01:33;5.93;;;5.33;;
7493;SDS011;3788;49.902;8.590;2023-04-06T14:04:01;6.97;;;5.80;;
7493;SDS011;3788;49.902;8.590;2023-04-06T14:06:28;7.37;;;5.73;;
7493;SDS011;3788;49.902;8.590;2023-04-06T14:08:55;8.73;;;6.40;;
7493;SDS011;3788;49.902;8.590;2023-04-06T14:11:22;7.10;;;5.23;;
7493;SDS011;3788;49.902;8.590;2023-04-06T14:13:48;7.57;;;5.07;;
7493;SDS011;3788;49.902;8.590;2023-04-06T14:16:15;6.20;;;5.60;;
7493;SDS011;3788;49.902;8.590;2023-04-06T14:18:44;6.70;;;5.60;;
7493;SDS011;3788;49.902;8.590;2023-04-06T14:21:12;5.80;;;5.20;;
7493;SDS011;3788;49.902;8.590;2023-04-06T14:23:39;7.47;;;5.23;;
7493;SDS011;3788;49.902;8.590;2023-04-06T14:26:06;7.87;;;5.90;;
7493;SDS011;3788;49.902;8.590;2023-04-06T14:28:34;7.83;;;6.17;;
7493;SDS011;3788;49.902;8.590;2023-04-06T14:31:01;8.07;;;5.70;;
7493;SDS011;3788;49.902;8.590;2023-04-06T14:33:35;8.97;;;6.00;;
7493;SDS011;3788;49.902;8.590;2023-04-06T14:36:02;8.23;;;5.63;;
7493;SDS011;3788;49.902;8.590;2023-04-06T14:38:31;9.17;;;6.13;;
7493;SDS011;3788;49.902;8.590;2023-04-06T14:40:58;8.37;;;5.53;;
7493;SDS011;3788;49.902;8.590;2023-04-06T14:43:25;6.20;;;5.60;;
7493;SDS011;3788;49.902;8.590;2023-04-06T14:45:51;6.43;;;5.70;;
7493;SDS011;3788;49.902;8.590;2023-04-06T14:48:18;7.67;;;5.47;;
7493;SDS011;3788;49.902;8.590;2023-04-06T14:50:51;6.03;;;5.27;;
7493;SDS011;3788;49.902;8.590;2023-04-06T14:53:20;5.73;;;5.03;;
7493;SDS011;3788;49.902;8.590;2023-04-06T14:55:48;7.27;;;5.40;;
7493;SDS011;3788;49.902;8.590;2023-04-06T14:58:16;8.47;;;6.00;;
7493;SDS011;3788;49.902;8.590;2023-04-06T15:00:43;5.97;;;5.00;;
7493;SDS011;3788;49.902;8.590;2023-04-06T15:03:09;5.93;;;4.97;;
7493;SDS011;3788;49.902;8.590;2023-04-06T15:05:36;8.37;;;5.60;;
7493;SDS011;3788;49.902;8.590;2023-04-06T15:08:03;6.70;;;5.07;;
7493;SDS011;3788;49.902;8.590;2023-04-06T15:10:30;5.20;;;4.27;;
7493;SDS011;3788;49.902;8.590;2023-04-06T15:12:58;4.90;;;4.40;;
7493;SDS011;3788;49.902;8.590;2023-04-06T15:15:26;6.17;;;4.47;;
7493;SDS011;3788;49.902;8.590;2023-04-06T15:17:52;6.53;;;3.67;;